sensor_id;sensor_type;location;lat;lon;timestamp;pressure;altitude;pressure_sealevel;temperature;humidity
63347;BME280;49472;49.880;8.650;2023-07-20T00:01:08;-4003.41;;;-142.94;nan
63347;BME280;49472;49.880;8.650;2023-07-20T00:03:34;-2290.56;;;-142.94;nan
63347;BME280;49472;49.880;8.650;2023-07-20T00:05:59;-3269.44;;;-142.94;nan
63347;BME280;49472;49.880;8.650;2023-07-20T00:08:24;-2780.03;;;-142.94;nan
63347;BME280;49472;49.880;8.650;2023-07-20T00:10:49;-5226.31;;;-142.94;nan
63347;BME280;49472;49.880;8.650;2023-07-20T00:13:15;-4248.00;;;-142.94;nan
63347;BME280;49472;49.880;8.650;2023-07-20T00:15:41;-7182.00;;;-142.94;nan
63347;BME280;49472;49.880;8.650;2023-07-20T00:18:07;-4492.63;;;-142.94;nan
63347;BME280;49472;49.880;8.650;2023-07-20T00:20:32;-4003.41;;;-142.94;nan
63347;BME280;49472;49.880;8.650;2023-07-20T00:22:57;-3758.75;;;-142.94;nan
63347;BME280;49472;49.880;8.650;2023-07-20T00:25:23;-4248.00;;;-142.94;nan
63347;BME280;49472;49.880;8.650;2023-07-20T00:27:49;-6448.75;;;-142.94;nan
63347;BME280;49472;49.880;8.650;2023-07-20T00:30:14;-7426.38;;;-142.94;nan
63347;BME280;49472;49.880;8.650;2023-07-20T00:32:40;-5226.31;;;-142.94;nan
63347;BME280;49472;49.880;8.650;2023-07-20T00:35:05;-4248.00;;;-142.94;nan
63347;BME280;49472;49.880;8.650;2023-07-20T00:37:31;-4492.63;;;-142.94;nan
63347;BME280;49472;49.880;8.650;2023-07-20T00:39:56;-4248.00;;;-142.94;nan
63347;BME280;49472;49.880;8.650;2023-07-20T00:42:22;-5715.34;;;-142.94;nan
63347;BME280;49472;49.880;8.650;2023-07-20T00:44:47;-6204.28;;;-142.94;nan
63347;BME280;49472;49.880;8.650;2023-07-20T00:47:12;-8159.41;;;-142.94;nan
63347;BME280;49472;49.880;8.650;2023-07-20T00:49:38;-7670.75;;;-142.94;nan
63347;BME280;49472;49.880;8.650;2023-07-20T00:52:06;-7670.75;;;-142.94;nan
63347;BME280;49472;49.880;8.650;2023-07-20T00:54:32;-9136.53;;;-142.94;nan
63347;BME280;49472;49.880;8.650;2023-07-20T00:56:58;-9869.19;;;-142.94;nan
63347;BME280;49472;49.880;8.650;2023-07-20T00:59:25;-7915.09;;;-142.94;nan
63347;BME280;49472;49.880;8.650;2023-07-20T01:01:51;-10601.66;;;-142.94;nan
63347;BME280;49472;49.880;8.650;2023-07-20T01:04:17;-11578.03;;;-142.94;nan
63347;BME280;49472;49.880;8.650;2023-07-20T01:09:47;-13531.38;;;-142.94;nan
63347;BME280;49472;49.880;8.650;2023-07-20T01:12:22;-13531.38;;;-142.94;nan
63347;BME280;49472;49.880;8.650;2023-07-20T01:14:50;-13531.38;;;-142.94;nan
63347;BME280;49472;49.880;8.650;2023-07-20T01:17:16;-13531.38;;;-142.94;nan
63347;BME280;49472;49.880;8.650;2023-07-20T01:19:41;-13531.38;;;-142.94;nan
63347;BME280;49472;49.880;8.650;2023-07-20T01:27:25;-13531.38;;;-142.94;nan
63347;BME280;49472;49.880;8.650;2023-07-20T01:32:40;-13531.38;;;-142.94;nan
63347;BME280;49472;49.880;8.650;2023-07-20T01:35:08;-13531.38;;;-142.94;nan
63347;BME280;49472;49.880;8.650;2023-07-20T01:37:37;-13531.38;;;-142.94;nan
63347;BME280;49472;49.880;8.650;2023-07-20T01:40:03;-13531.38;;;-142.94;nan
63347;BME280;49472;49.880;8.650;2023-07-20T01:42:29;-13531.38;;;-142.94;nan
63347;BME280;49472;49.880;8.650;2023-07-20T01:44:55;-13531.38;;;-142.94;nan
63347;BME280;49472;49.880;8.650;2023-07-20T01:47:20;-13531.38;;;-142.94;nan
63347;BME280;49472;49.880;8.650;2023-07-20T01:49:45;-13531.38;;;-142.94;nan
63347;BME280;49472;49.880;8.650;2023-07-20T01:52:11;-13531.38;;;-142.94;nan
63347;BME280;49472;49.880;8.650;2023-07-20T01:54:36;-13531.38;;;-142.94;nan
63347;BME280;49472;49.880;8.650;2023-07-20T01:57:02;-13531.38;;;-142.94;nan
63347;BME280;49472;49.880;8.650;2023-07-20T01:59:27;-13531.38;;;-142.94;nan
63347;BME280;49472;49.880;8.650;2023-07-20T02:01:53;-13531.38;;;-142.94;nan
63347;BME280;49472;49.880;8.650;2023-07-20T02:04:19;-13531.38;;;-142.94;nan
63347;BME280;49472;49.880;8.650;2023-07-20T02:06:44;-13531.38;;;-142.94;nan
63347;BME280;49472;49.880;8.650;2023-07-20T02:09:09;-13531.38;;;-142.94;nan
63347;BME280;49472;49.880;8.650;2023-07-20T02:11:35;-13531.38;;;-142.94;nan
63347;BME280;49472;49.880;8.650;2023-07-20T02:14:00;-13531.38;;;-142.94;nan
63347;BME280;49472;49.880;8.650;2023-07-20T02:16:26;-13531.38;;;-142.94;nan
63347;BME280;49472;49.880;8.650;2023-07-20T02:18:52;-13531.38;;;-142.94;nan
63347;BME280;49472;49.880;8.650;2023-07-20T02:21:17;-13531.38;;;-142.94;nan
63347;BME280;49472;49.880;8.650;2023-07-20T02:23:43;-13531.38;;;-142.94;nan
63347;BME280;49472;49.880;8.650;2023-07-20T02:26:08;-13531.38;;;-142.94;nan
63347;BME280;49472;49.880;8.650;2023-07-20T02:28:33;-13531.38;;;-142.94;nan
63347;BME280;49472;49.880;8.650;2023-07-20T02:30:58;-13531.38;;;-142.94;nan
63347;BME280;49472;49.880;8.650;2023-07-20T02:33:25;-13531.38;;;-142.94;nan
63347;BME280;49472;49.880;8.650;2023-07-20T02:35:51;-13531.38;;;-142.94;nan
63347;BME280;49472;49.880;8.650;2023-07-20T02:38:16;-13531.38;;;-142.94;nan
63347;BME280;49472;49.880;8.650;2023-07-20T02:40:41;-13531.38;;;-142.94;nan
63347;BME280;49472;49.880;8.650;2023-07-20T02:43:06;-13531.38;;;-142.94;nan
63347;BME280;49472;49.880;8.650;2023-07-20T02:45:32;-13531.38;;;-142.94;nan
63347;BME280;49472;49.880;8.650;2023-07-20T02:47:57;-13531.38;;;-142.94;nan
63347;BME280;49472;49.880;8.650;2023-07-20T02:50:22;-13531.38;;;-142.94;nan
63347;BME280;49472;49.880;8.650;2023-07-20T02:52:48;-13531.38;;;-142.94;nan
63347;BME280;49472;49.880;8.650;2023-07-20T02:55:13;-13531.38;;;-142.94;nan
63347;BME280;49472;49.880;8.650;2023-07-20T02:57:38;-13531.38;;;-142.94;nan
63347;BME280;49472;49.880;8.650;2023-07-20T03:00:04;-13531.38;;;-142.94;nan
63347;BME280;49472;49.880;8.650;2023-07-20T03:02:31;-13531.38;;;-142.94;nan
63347;BME280;49472;49.880;8.650;2023-07-20T03:04:57;-13531.38;;;-142.94;nan
63347;BME280;49472;49.880;8.650;2023-07-20T03:07:27;-13531.38;;;-142.94;nan
63347;BME280;49472;49.880;8.650;2023-07-20T03:09:53;-13531.38;;;-142.94;nan
63347;BME280;49472;49.880;8.650;2023-07-20T03:12:18;-13531.38;;;-142.94;nan
63347;BME280;49472;49.880;8.650;2023-07-20T03:14:43;-13531.38;;;-142.94;nan
63347;BME280;49472;49.880;8.650;2023-07-20T03:17:09;-13531.38;;;-142.94;nan
63347;BME280;49472;49.880;8.650;2023-07-20T03:19:34;-13531.38;;;-142.94;nan
63347;BME280;49472;49.880;8.650;2023-07-20T03:21:59;-13531.38;;;-142.94;nan
63347;BME280;49472;49.880;8.650;2023-07-20T03:24:25;-13531.38;;;-142.94;nan
63347;BME280;49472;49.880;8.650;2023-07-20T03:26:50;-13531.38;;;-142.94;nan
63347;BME280;49472;49.880;8.650;2023-07-20T03:29:15;-13531.38;;;-142.94;nan
63347;BME280;49472;49.880;8.650;2023-07-20T03:31:41;-13531.38;;;-142.94;nan
63347;BME280;49472;49.880;8.650;2023-07-20T03:34:06;-13531.38;;;-142.94;nan
63347;BME280;49472;49.880;8.650;2023-07-20T03:36:33;-13531.38;;;-142.94;nan
63347;BME280;49472;49.880;8.650;2023-07-20T03:38:59;-13531.38;;;-142.94;nan
63347;BME280;49472;49.880;8.650;2023-07-20T03:41:24;-13531.38;;;-142.94;nan
63347;BME280;49472;49.880;8.650;2023-07-20T03:43:49;-13531.38;;;-142.94;nan
63347;BME280;49472;49.880;8.650;2023-07-20T03:46:15;-13531.38;;;-142.94;nan
63347;BME280;49472;49.880;8.650;2023-07-20T03:48:40;-13531.38;;;-142.94;nan
63347;BME280;49472;49.880;8.650;2023-07-20T03:51:06;-13531.38;;;-142.94;nan
63347;BME280;49472;49.880;8.650;2023-07-20T03:53:31;-13531.38;;;-142.94;nan
63347;BME280;49472;49.880;8.650;2023-07-20T03:55:57;-13531.38;;;-142.94;nan
63347;BME280;49472;49.880;8.650;2023-07-20T03:58:22;-13531.38;;;-142.94;nan
63347;BME280;49472;49.880;8.650;2023-07-20T04:00:49;-13531.38;;;-142.94;nan
63347;BME280;49472;49.880;8.650;2023-07-20T04:03:16;-13531.38;;;-142.94;nan
63347;BME280;49472;49.880;8.650;2023-07-20T04:05:41;-13531.38;;;-142.94;nan
63347;BME280;49472;49.880;8.650;2023-07-20T04:08:07;-13531.38;;;-142.94;nan
63347;BME280;49472;49.880;8.650;2023-07-20T04:10:33;-13531.38;;;-142.94;nan
63347;BME280;49472;49.880;8.650;2023-07-20T04:12:58;-13531.38;;;-142.94;nan
63347;BME280;49472;49.880;8.650;2023-07-20T04:15:23;-13531.38;;;-142.94;nan
63347;BME280;49472;49.880;8.650;2023-07-20T04:17:49;-13531.38;;;-142.94;nan
63347;BME280;49472;49.880;8.650;2023-07-20T04:20:14;-13531.38;;;-142.94;nan
63347;BME280;49472;49.880;8.650;2023-07-20T04:22:39;-13531.38;;;-142.94;nan
63347;BME280;49472;49.880;8.650;2023-07-20T04:25:05;-13531.38;;;-142.94;nan
63347;BME280;49472;49.880;8.650;2023-07-20T04:27:30;-13531.38;;;-142.94;nan
63347;BME280;49472;49.880;8.650;2023-07-20T04:29:57;-13531.38;;;-142.94;nan
63347;BME280;49472;49.880;8.650;2023-07-20T04:32:23;-13531.38;;;-142.94;nan
63347;BME280;49472;49.880;8.650;2023-07-20T04:34:48;-13531.38;;;-142.94;nan
63347;BME280;49472;49.880;8.650;2023-07-20T04:37:13;-13531.38;;;-142.94;nan
63347;BME280;49472;49.880;8.650;2023-07-20T04:39:38;-13531.38;;;-142.94;nan
63347;BME280;49472;49.880;8.650;2023-07-20T04:42:04;-13531.38;;;-142.94;nan
63347;BME280;49472;49.880;8.650;2023-07-20T04:44:29;-13531.38;;;-142.94;nan
63347;BME280;49472;49.880;8.650;2023-07-20T04:46:55;-13531.38;;;-142.94;nan
63347;BME280;49472;49.880;8.650;2023-07-20T04:49:20;-13531.38;;;-142.94;nan
63347;BME280;49472;49.880;8.650;2023-07-20T04:51:46;-13531.38;;;-142.94;nan
63347;BME280;49472;49.880;8.650;2023-07-20T04:54:11;-13531.38;;;-142.94;nan
63347;BME280;49472;49.880;8.650;2023-07-20T04:56:36;-13531.38;;;-142.94;nan
63347;BME280;49472;49.880;8.650;2023-07-20T04:59:02;-13531.38;;;-142.94;nan
63347;BME280;49472;49.880;8.650;2023-07-20T05:01:27;-13531.38;;;-142.94;nan
63347;BME280;49472;49.880;8.650;2023-07-20T05:03:53;-13531.38;;;-142.94;nan
63347;BME280;49472;49.880;8.650;2023-07-20T05:06:18;-13531.38;;;-142.94;nan
63347;BME280;49472;49.880;8.650;2023-07-20T05:08:44;-13531.38;;;-142.94;nan
63347;BME280;49472;49.880;8.650;2023-07-20T05:11:10;-13531.38;;;-142.94;nan
63347;BME280;49472;49.880;8.650;2023-07-20T05:13:36;-13531.38;;;-142.94;nan
63347;BME280;49472;49.880;8.650;2023-07-20T05:16:01;-13531.38;;;-142.94;nan
63347;BME280;49472;49.880;8.650;2023-07-20T05:18:27;-13531.38;;;-142.94;nan
63347;BME280;49472;49.880;8.650;2023-07-20T05:20:52;-13531.38;;;-142.94;nan
63347;BME280;49472;49.880;8.650;2023-07-20T05:23:20;-13531.38;;;-142.94;nan
63347;BME280;49472;49.880;8.650;2023-07-20T05:25:45;-13531.38;;;-142.94;nan
63347;BME280;49472;49.880;8.650;2023-07-20T05:28:11;-13531.38;;;-142.94;nan
63347;BME280;49472;49.880;8.650;2023-07-20T05:30:36;-13531.38;;;-142.94;nan
63347;BME280;49472;49.880;8.650;2023-07-20T05:33:01;-13531.38;;;-142.94;nan
63347;BME280;49472;49.880;8.650;2023-07-20T05:35:27;-13531.38;;;-142.94;nan
63347;BME280;49472;49.880;8.650;2023-07-20T05:37:52;-13531.38;;;-142.94;nan
63347;BME280;49472;49.880;8.650;2023-07-20T05:40:18;-13531.38;;;-142.94;nan
63347;BME280;49472;49.880;8.650;2023-07-20T05:42:48;-13531.38;;;-142.94;nan
63347;BME280;49472;49.880;8.650;2023-07-20T05:45:14;-13531.38;;;-142.94;nan
63347;BME280;49472;49.880;8.650;2023-07-20T05:47:40;-13531.38;;;-142.94;nan
63347;BME280;49472;49.880;8.650;2023-07-20T05:50:05;-13531.38;;;-142.94;nan
63347;BME280;49472;49.880;8.650;2023-07-20T05:52:31;-13531.38;;;-142.94;nan
63347;BME280;49472;49.880;8.650;2023-07-20T05:54:56;-13531.38;;;-142.94;nan
63347;BME280;49472;49.880;8.650;2023-07-20T05:57:21;-13531.38;;;-142.94;nan
63347;BME280;49472;49.880;8.650;2023-07-20T05:59:47;-13531.38;;;-142.94;nan
63347;BME280;49472;49.880;8.650;2023-07-20T06:02:12;-13531.38;;;-142.94;nan
63347;BME280;49472;49.880;8.650;2023-07-20T06:04:39;-13531.38;;;-142.94;nan
63347;BME280;49472;49.880;8.650;2023-07-20T06:07:04;-13531.38;;;-142.94;nan
63347;BME280;49472;49.880;8.650;2023-07-20T06:09:30;-13531.38;;;-142.94;nan
63347;BME280;49472;49.880;8.650;2023-07-20T06:11:56;-13531.38;;;-142.94;nan
63347;BME280;49472;49.880;8.650;2023-07-20T06:14:21;-13531.38;;;-142.94;nan
63347;BME280;49472;49.880;8.650;2023-07-20T06:16:47;-13531.38;;;-142.94;nan
63347;BME280;49472;49.880;8.650;2023-07-20T06:19:12;-13531.38;;;-142.94;nan
63347;BME280;49472;49.880;8.650;2023-07-20T06:21:38;-13531.38;;;-142.94;nan
63347;BME280;49472;49.880;8.650;2023-07-20T06:24:03;-13531.38;;;-142.94;nan
63347;BME280;49472;49.880;8.650;2023-07-20T06:26:29;-13531.38;;;-142.94;nan
63347;BME280;49472;49.880;8.650;2023-07-20T06:28:55;-13531.38;;;-142.94;nan
63347;BME280;49472;49.880;8.650;2023-07-20T06:31:21;-13531.38;;;-142.94;nan
63347;BME280;49472;49.880;8.650;2023-07-20T06:33:46;-13531.38;;;-142.94;nan
63347;BME280;49472;49.880;8.650;2023-07-20T06:36:12;-13531.38;;;-142.94;nan
63347;BME280;49472;49.880;8.650;2023-07-20T06:38:37;-13531.38;;;-142.94;nan
63347;BME280;49472;49.880;8.650;2023-07-20T06:41:02;-13531.38;;;-142.94;nan
63347;BME280;49472;49.880;8.650;2023-07-20T06:43:27;-13531.38;;;-142.94;nan
63347;BME280;49472;49.880;8.650;2023-07-20T06:45:53;-13531.38;;;-142.94;nan
63347;BME280;49472;49.880;8.650;2023-07-20T06:48:18;-13531.38;;;-142.94;nan
63347;BME280;49472;49.880;8.650;2023-07-20T06:50:44;-13531.38;;;-142.94;nan
63347;BME280;49472;49.880;8.650;2023-07-20T06:53:09;-13531.38;;;-142.94;nan
63347;BME280;49472;49.880;8.650;2023-07-20T06:55:34;-13531.38;;;-142.94;nan
63347;BME280;49472;49.880;8.650;2023-07-20T06:58:00;-13531.38;;;-142.94;nan
63347;BME280;49472;49.880;8.650;2023-07-20T07:00:25;-13531.38;;;-142.94;nan
63347;BME280;49472;49.880;8.650;2023-07-20T07:02:50;-13531.38;;;-142.94;nan
63347;BME280;49472;49.880;8.650;2023-07-20T07:05:15;-13531.38;;;-142.94;nan
63347;BME280;49472;49.880;8.650;2023-07-20T07:07:41;-13531.38;;;-142.94;nan
63347;BME280;49472;49.880;8.650;2023-07-20T07:10:07;-13531.38;;;-142.94;nan
63347;BME280;49472;49.880;8.650;2023-07-20T07:12:33;-13531.38;;;-142.94;nan
63347;BME280;49472;49.880;8.650;2023-07-20T07:14:59;-13531.38;;;-142.94;nan
63347;BME280;49472;49.880;8.650;2023-07-20T07:17:25;-13531.38;;;-142.94;nan
63347;BME280;49472;49.880;8.650;2023-07-20T07:19:51;-13531.38;;;-142.94;nan
63347;BME280;49472;49.880;8.650;2023-07-20T07:22:20;-13531.38;;;-142.94;nan
63347;BME280;49472;49.880;8.650;2023-07-20T07:24:46;-13531.38;;;-142.94;nan
63347;BME280;49472;49.880;8.650;2023-07-20T07:27:11;-13531.38;;;-142.94;nan
63347;BME280;49472;49.880;8.650;2023-07-20T07:29:37;-13531.38;;;-142.94;nan
63347;BME280;49472;49.880;8.650;2023-07-20T07:32:02;-13531.38;;;-142.94;nan
63347;BME280;49472;49.880;8.650;2023-07-20T07:34:28;-13531.38;;;-142.94;nan
63347;BME280;49472;49.880;8.650;2023-07-20T07:36:53;-13531.38;;;-142.94;nan
63347;BME280;49472;49.880;8.650;2023-07-20T07:39:19;-13531.38;;;-142.94;nan
63347;BME280;49472;49.880;8.650;2023-07-20T07:41:44;-13531.38;;;-142.94;nan
63347;BME280;49472;49.880;8.650;2023-07-20T07:44:09;-13531.38;;;-142.94;nan
63347;BME280;49472;49.880;8.650;2023-07-20T07:46:35;-13531.38;;;-142.94;nan
63347;BME280;49472;49.880;8.650;2023-07-20T07:49:00;-13531.38;;;-142.94;nan
63347;BME280;49472;49.880;8.650;2023-07-20T07:51:25;-13531.38;;;-142.94;nan
63347;BME280;49472;49.880;8.650;2023-07-20T07:53:54;-13531.38;;;-142.94;nan
63347;BME280;49472;49.880;8.650;2023-07-20T07:56:19;-13531.38;;;-142.94;nan
63347;BME280;49472;49.880;8.650;2023-07-20T07:58:51;-13531.38;;;-142.94;nan
63347;BME280;49472;49.880;8.650;2023-07-20T08:01:20;-13531.38;;;-142.94;nan
63347;BME280;49472;49.880;8.650;2023-07-20T08:03:45;-13531.38;;;-142.94;nan
63347;BME280;49472;49.880;8.650;2023-07-20T08:06:13;-13531.38;;;-142.94;nan
63347;BME280;49472;49.880;8.650;2023-07-20T08:08:38;-13531.38;;;-142.94;nan
63347;BME280;49472;49.880;8.650;2023-07-20T08:11:04;-13531.38;;;-142.94;nan
63347;BME280;49472;49.880;8.650;2023-07-20T08:13:29;-13531.38;;;-142.94;nan
63347;BME280;49472;49.880;8.650;2023-07-20T08:15:55;-13531.38;;;-142.94;nan
63347;BME280;49472;49.880;8.650;2023-07-20T08:18:20;-13531.38;;;-142.94;nan
63347;BME280;49472;49.880;8.650;2023-07-20T08:20:46;-13531.38;;;-142.94;nan
63347;BME280;49472;49.880;8.650;2023-07-20T08:23:13;-13531.38;;;-142.94;nan
63347;BME280;49472;49.880;8.650;2023-07-20T08:25:39;-13531.38;;;-142.94;nan
63347;BME280;49472;49.880;8.650;2023-07-20T08:28:07;-13531.38;;;-142.94;nan
63347;BME280;49472;49.880;8.650;2023-07-20T08:33:07;-13531.38;;;-142.94;nan
63347;BME280;49472;49.880;8.650;2023-07-20T08:35:33;-13531.38;;;-142.94;nan
63347;BME280;49472;49.880;8.650;2023-07-20T08:37:58;-13531.38;;;-142.94;nan
63347;BME280;49472;49.880;8.650;2023-07-20T08:40:24;-13531.38;;;-142.94;nan
63347;BME280;49472;49.880;8.650;2023-07-20T08:42:50;-13531.38;;;-142.94;nan
63347;BME280;49472;49.880;8.650;2023-07-20T08:45:16;-13531.38;;;-142.94;nan
63347;BME280;49472;49.880;8.650;2023-07-20T08:47:43;-13531.38;;;-142.94;nan
63347;BME280;49472;49.880;8.650;2023-07-20T08:50:09;-13531.38;;;-142.94;nan
63347;BME280;49472;49.880;8.650;2023-07-20T08:52:35;-13529.94;;;-142.94;nan
63347;BME280;49472;49.880;8.650;2023-07-20T08:55:01;-13531.38;;;-142.94;nan
63347;BME280;49472;49.880;8.650;2023-07-20T08:57:32;-13529.94;;;-142.94;nan
63347;BME280;49472;49.880;8.650;2023-07-20T08:59:59;-13529.94;;;-142.94;nan
63347;BME280;49472;49.880;8.650;2023-07-20T09:02:26;-13529.94;;;-142.94;nan
63347;BME280;49472;49.880;8.650;2023-07-20T09:04:52;-13042.06;;;-142.94;nan
63347;BME280;49472;49.880;8.650;2023-07-20T09:07:18;-12310.13;;;-142.94;nan
63347;BME280;49472;49.880;8.650;2023-07-20T09:09:45;-12310.13;;;-142.94;nan
63347;BME280;49472;49.880;8.650;2023-07-20T09:12:14;-11333.97;;;-142.94;nan
63347;BME280;49472;49.880;8.650;2023-07-20T09:14:43;-11089.88;;;-142.94;nan
63347;BME280;49472;49.880;8.650;2023-07-20T09:17:12;-11089.88;;;-142.94;nan
63347;BME280;49472;49.880;8.650;2023-07-20T09:19:38;-10845.78;;;-142.94;nan
63347;BME280;49472;49.880;8.650;2023-07-20T09:22:05;-11333.97;;;-142.94;nan
63347;BME280;49472;49.880;8.650;2023-07-20T09:24:31;-11333.97;;;-142.94;nan
63347;BME280;49472;49.880;8.650;2023-07-20T09:27:01;-8403.72;;;-142.94;nan
63347;BME280;49472;49.880;8.650;2023-07-20T09:29:30;-9624.97;;;-142.94;nan
63347;BME280;49472;49.880;8.650;2023-07-20T09:34:23;-8159.41;;;-142.94;nan
63347;BME280;49472;49.880;8.650;2023-07-20T09:36:49;-7426.38;;;-142.94;nan
63347;BME280;49472;49.880;8.650;2023-07-20T09:39:14;-6937.59;;;-142.94;nan
63347;BME280;49472;49.880;8.650;2023-07-20T09:41:40;-9136.53;;;-142.94;nan
63347;BME280;49472;49.880;8.650;2023-07-20T09:44:10;-8403.72;;;-142.94;nan
63347;BME280;49472;49.880;8.650;2023-07-20T09:46:48;-8648.00;;;-142.94;nan
63347;BME280;49472;49.880;8.650;2023-07-20T09:49:14;-6693.19;;;-142.94;nan
63347;BME280;49472;49.880;8.650;2023-07-20T09:51:40;-5470.81;;;-142.94;nan
63347;BME280;49472;49.880;8.650;2023-07-20T09:54:07;-6448.75;;;-142.94;nan
63347;BME280;49472;49.880;8.650;2023-07-20T09:56:34;-2780.03;;;-142.94;nan
63347;BME280;49472;49.880;8.650;2023-07-20T09:59:00;-1801.00;;;-142.94;nan
63347;BME280;49472;49.880;8.650;2023-07-20T10:01:26;-331.94;;;-142.94;nan
63347;BME280;49472;49.880;8.650;2023-07-20T10:03:53;402.84;;;-142.94;nan
63347;BME280;49472;49.880;8.650;2023-07-20T10:06:24;-2045.78;;;-142.94;nan
63347;BME280;49472;49.880;8.650;2023-07-20T10:08:53;-821.69;;;-142.94;nan
63347;BME280;49472;49.880;8.650;2023-07-20T10:11:21;4815.03;;;-142.94;nan
63347;BME280;49472;49.880;8.650;2023-07-20T10:13:51;8987.53;;;-142.94;nan
63347;BME280;49472;49.880;8.650;2023-07-20T10:16:29;9970.06;;;-142.94;nan
63347;BME280;49472;49.880;8.650;2023-07-20T10:19:07;13411.25;;;-142.94;nan
63347;BME280;49472;49.880;8.650;2023-07-20T10:21:40;15133.16;;;-142.94;nan
63347;BME280;49472;49.880;8.650;2023-07-20T10:24:07;18087.13;;;-142.94;nan
63347;BME280;49472;49.880;8.650;2023-07-20T10:26:34;16363.66;;;-142.94;nan
63347;BME280;49472;49.880;8.650;2023-07-20T10:29:00;17102.19;;;-142.94;nan
63347;BME280;49472;49.880;8.650;2023-07-20T10:31:26;17840.88;;;-142.94;nan
63347;BME280;49472;49.880;8.650;2023-07-20T10:33:54;14887.13;;;-142.94;nan
63347;BME280;49472;49.880;8.650;2023-07-20T10:36:27;15871.41;;;-142.94;nan
63347;BME280;49472;49.880;8.650;2023-07-20T10:38:54;16856.00;;;-142.94;nan
63347;BME280;49472;49.880;8.650;2023-07-20T10:41:20;17348.41;;;-142.94;nan
63347;BME280;49472;49.880;8.650;2023-07-20T10:43:49;18087.13;;;-142.94;nan
63347;BME280;49472;49.880;8.650;2023-07-20T10:46:51;17102.19;;;-142.94;nan
63347;BME280;49472;49.880;8.650;2023-07-20T10:49:21;19072.38;;;-142.94;nan
63347;BME280;49472;49.880;8.650;2023-07-20T10:51:57;18579.72;;;-142.94;nan
63347;BME280;49472;49.880;8.650;2023-07-20T10:56:48;20550.78;;;-142.94;nan
63347;BME280;49472;49.880;8.650;2023-07-20T11:01:48;22769.63;;;-142.94;nan
63347;BME280;49472;49.880;8.650;2023-07-20T11:04:15;21536.75;;;-142.94;nan
63347;BME280;49472;49.880;8.650;2023-07-20T11:06:47;23262.91;;;-142.94;nan
63347;BME280;49472;49.880;8.650;2023-07-20T11:09:22;23509.59;;;-142.94;nan
63347;BME280;49472;49.880;8.650;2023-07-20T11:12:09;24249.69;;;-142.94;nan
63347;BME280;49472;49.880;8.650;2023-07-20T11:14:40;25977.25;;;-142.94;nan
63347;BME280;49472;49.880;8.650;2023-07-20T11:17:14;27211.78;;;-142.94;nan
63347;BME280;49472;49.880;8.650;2023-07-20T11:19:40;26717.91;;;-142.94;nan
63347;BME280;49472;49.880;8.650;2023-07-20T11:22:06;27952.72;;;-142.94;nan
63347;BME280;49472;49.880;8.650;2023-07-20T11:24:38;34876.03;;;-142.94;nan
63347;BME280;49472;49.880;8.650;2023-07-20T11:27:04;32649.13;;;-142.94;nan
63347;BME280;49472;49.880;8.650;2023-07-20T11:29:30;32154.44;;;-142.94;nan
63347;BME280;49472;49.880;8.650;2023-07-20T11:31:56;32649.13;;;-142.94;nan
63347;BME280;49472;49.880;8.650;2023-07-20T11:34:21;34381.03;;;-142.94;nan
63347;BME280;49472;49.880;8.650;2023-07-20T11:36:49;35371.09;;;-142.94;nan
63347;BME280;49472;49.880;8.650;2023-07-20T11:39:18;41875.72;;;-142.94;nan
63347;BME280;49472;49.880;8.650;2023-07-20T11:41:57;41480.44;;;-142.94;nan
63347;BME280;49472;49.880;8.650;2023-07-20T11:44:27;41567.63;;;-142.94;nan
63347;BME280;49472;49.880;8.650;2023-07-20T11:47:06;40114.75;;;-142.94;nan
63347;BME280;49472;49.880;8.650;2023-07-20T11:49:35;42216.78;;;-142.94;nan
63347;BME280;49472;49.880;8.650;2023-07-20T11:52:05;45703.03;;;-142.94;nan
63347;BME280;49472;49.880;8.650;2023-07-20T11:54:31;47989.09;;;-142.94;nan
63347;BME280;49472;49.880;8.650;2023-07-20T11:57:00;46514.06;;;-142.94;nan
63347;BME280;49472;49.880;8.650;2023-07-20T11:59:26;45947.50;;;-142.94;nan
63347;BME280;49472;49.880;8.650;2023-07-20T12:01:52;48870.56;;;-142.94;nan
63347;BME280;49472;49.880;8.650;2023-07-20T12:04:17;48664.75;;;-142.94;nan
63347;BME280;49472;49.880;8.650;2023-07-20T12:06:45;47315.56;;;-142.94;nan
63347;BME280;49472;49.880;8.650;2023-07-20T12:09:14;43620.16;;;-142.94;nan
63347;BME280;49472;49.880;8.650;2023-07-20T12:11:43;47451.41;;;-142.94;nan
63347;BME280;49472;49.880;8.650;2023-07-20T12:14:09;43571.69;;;-142.94;nan
63347;BME280;49472;49.880;8.650;2023-07-20T12:16:35;48074.53;;;-142.94;nan
63347;BME280;49472;49.880;8.650;2023-07-20T12:19:09;46906.03;;;-142.94;nan
63347;BME280;49472;49.880;8.650;2023-07-20T12:21:36;48414.28;;;-142.94;nan
63347;BME280;49472;49.880;8.650;2023-07-20T12:24:05;47241.78;;;-142.94;nan
63347;BME280;49472;49.880;8.650;2023-07-20T12:26:32;49010.38;;;-142.94;nan
63347;BME280;49472;49.880;8.650;2023-07-20T12:28:59;48676.41;;;-142.94;nan
63347;BME280;49472;49.880;8.650;2023-07-20T12:31:26;51908.91;;;-142.94;nan
63347;BME280;49472;49.880;8.650;2023-07-20T12:33:52;52686.41;;;-142.94;nan
63347;BME280;49472;49.880;8.650;2023-07-20T12:36:18;52101.31;;;-142.94;nan
63347;BME280;49472;49.880;8.650;2023-07-20T12:38:44;51273.44;;;-142.94;nan
63347;BME280;49472;49.880;8.650;2023-07-20T12:41:10;52114.94;;;-142.94;nan
63347;BME280;49472;49.880;8.650;2023-07-20T12:43:43;51996.38;;;-142.94;nan
63347;BME280;49472;49.880;8.650;2023-07-20T12:46:10;51292.84;;;-142.94;nan
63347;BME280;49472;49.880;8.650;2023-07-20T12:48:36;52390.94;;;-142.94;nan
63347;BME280;49472;49.880;8.650;2023-07-20T12:51:03;53650.75;;;-142.94;nan
63347;BME280;49472;49.880;8.650;2023-07-20T12:53:28;53763.56;;;-142.94;nan
63347;BME280;49472;49.880;8.650;2023-07-20T12:55:54;53600.22;;;-142.94;nan
63347;BME280;49472;49.880;8.650;2023-07-20T12:58:19;54029.97;;;-142.94;nan
63347;BME280;49472;49.880;8.650;2023-07-20T13:00:44;53798.56;;;-142.94;nan
63347;BME280;49472;49.880;8.650;2023-07-20T13:03:10;53596.31;;;-142.94;nan
63347;BME280;49472;49.880;8.650;2023-07-20T13:05:35;53267.72;;;-142.94;nan
63347;BME280;49472;49.880;8.650;2023-07-20T13:08:01;53950.25;;;-142.94;nan
63347;BME280;49472;49.880;8.650;2023-07-20T13:10:27;54004.69;;;-142.94;nan